Latest Coastal Weather Observations for Mallacoota

IDV60701

Issued at 3:02 am EST Thursday 29 September 2016 (issued every 10 minutes, with the page automatically refreshed every 10 minutes)

About coastal observations | Map of coastal stations | Coastal observations for VIC | Marine services | Other Formats
Station Details ID: 084084 Name: MALLACOOTA Lat: -37.60 Lon: 149.73 Height: 22.0 m
Data from the previous 72 hours. | See also: Recent months at Mallacoota
Date/Time
EST
Temp
°C
Wind Pressure Rain since
9am
mm
Weather Cloud Vis
km
Sea
Height
m
Swell
Dir  Spd
kts
Gust
kts
hPa Trend Height
m
Period
s
Dir
29/03:00am 15.2 N 13 21 1000.7 - 0.0 - - - - - - -
29/02:30am 15.2 N 15 24 1001.3 - 0.0 - - - - - - -
29/02:00am 14.9 N 11 22 1001.8 - 0.0 - - - - - - -
29/01:30am 14.9 NNE 13 19 1002.7 - 0.0 - - - - - - -
29/01:00am 14.6 N 12 20 1003.4 - 0.0 - - - - - - -
29/12:30am 14.1 N 11 18 1004.1 - 0.0 - - - - - - -
29/12:00am 13.9 N 10 15 1004.6 - 0.0 - - - - - - -
 
Date/Time
EST
Temp
°C
Wind Pressure Rain since
9am
mm
Weather Cloud Vis
km
Sea
Height
m
Swell
Dir  Spd
kts
Gust
kts
hPa Trend Height
m
Period
s
Dir
28/11:30pm 14.1 N 11 23 1005.2 - 0.0 - - - - - - -
28/11:00pm 13.8 NNE 10 15 1005.3 - 0.0 - - - - - - -
28/10:30pm 13.4 N 10 16 1005.7 - 0.0 - - - - - - -
28/10:00pm 13.6 N 11 18 1006.3 - 0.0 - - - - - - -
28/09:30pm 13.2 N 9 13 1006.7 - 0.0 - - - - - - -
28/09:00pm 13.3 N 9 13 1006.9 - 0.0 - - - - - - -
28/08:30pm 13.5 NNE 10 15 1007.2 - 0.0 - - - - - - -
28/08:00pm 13.4 NNE 9 12 1007.8 - 0.0 - - - - - - -
28/07:30pm 12.7 N 7 10 1008.2 - 0.0 - - - - - - -
28/07:00pm 13.0 NNE 9 11 1008.1 - 0.0 - - - - - - -
28/06:30pm 13.2 NNE 9 13 1008.2 - 0.0 - - - - - - -
28/06:00pm 14.1 NNE 8 12 1007.6 - 0.0 - - - - - - -
28/05:30pm 14.2 NNE 10 15 1008.3 - 0.0 - - - - - - -
28/05:00pm 14.6 NE 12 17 1008.5 - 0.0 - - - - - - -
28/04:30pm 14.7 ENE 12 18 1008.5 - 0.0 - - - - - - -
28/04:00pm 15.0 ENE 10 15 1008.9 - 0.0 - - - - - - -
28/03:30pm 15.1 ENE 11 16 1008.9 - 0.0 - - - - - - -
28/03:00pm 15.7 E 9 12 1009.5 - 0.0 - - - - - - -
28/02:30pm 15.7 E 7 9 1010.3 - 0.0 - - - - - - -
28/02:00pm 15.8 ESE 6 7 1010.8 - 0.0 - - - - - - -
28/01:30pm 15.9 SE 6 8 1011.3 - 0.0 - - - - - - -
28/01:00pm 16.7 SE 5 7 1011.5 - 0.0 - - - - - - -
28/12:30pm 15.0 S 9 11 1011.8 - 0.0 - - - - - - -
28/12:00pm 15.1 S 11 12 1012.3 - 0.0 - - - - - - -
28/11:30am 14.8 S 12 14 1012.5 - 0.0 - - - - - - -
28/11:00am 15.2 S 12 15 1012.9 - 0.0 - - - - - - -
28/10:30am 14.8 S 14 17 1013.0 - 0.0 - - - - - - -
28/10:00am 15.1 S 10 14 1013.2 - 0.0 - - - - - - -
28/09:30am 15.6 SSW 7 10 1013.4 - 0.0 - - - - - - -
28/09:00am 15.1 SW 7 13 1013.6 - 0.2 - - - - - - -
28/08:30am 14.3 WSW 7 10 1013.6 - 0.2 - - - - - - -
28/08:00am 13.2 W 6 10 1013.7 - 0.2 - - - - - - -
28/07:30am 11.9 WNW 6 8 1013.7 - 0.2 - - - - - - -
28/07:00am 10.6 WNW 5 7 1013.7 - 0.2 - - - - - - -
28/06:30am 9.5 WNW 4 6 1013.5 - 0.2 - - - - - - -
28/06:00am 8.7 WNW 5 7 1013.3 - 0.2 - - - - - - -
28/05:30am 8.7 WNW 5 9 1012.9 - 0.2 - - - - - - -
28/05:00am 8.8 WNW 6 10 1012.7 - 0.2 - - - - - - -
28/04:30am 9.2 W 5 8 1012.6 - 0.2 - - - - - - -
28/04:00am 9.2 W 6 9 1012.4 - 0.2 - - - - - - -
28/03:30am 9.2 W 6 10 1012.1 - 0.2 - - - - - - -
28/03:00am 9.5 W 6 10 1011.9 - 0.2 - - - - - - -
28/02:30am 9.6 W 7 10 1011.8 - 0.2 - - - - - - -
28/02:00am 9.6 W 7 12 1012.0 - 0.2 - - - - - - -
28/01:30am 9.7 W 7 11 1012.1 - 0.2 - - - - - - -
28/01:00am 10.1 W 8 16 1012.2 - 0.2 - - - - - - -
28/12:30am 9.9 W 6 10 1012.3 - 0.2 - - - - - - -
28/12:00am 10.0 W 6 9 1011.9 - 0.2 - - - - - - -
 
Date/Time
EST
Temp
°C
Wind Pressure Rain since
9am
mm
Weather Cloud Vis
km
Sea
Height
m
Swell
Dir  Spd
kts
Gust
kts
hPa Trend Height
m
Period
s
Dir
27/11:30pm 9.9 W 6 10 1012.0 - 0.0 - - - - - - -
27/11:00pm 10.1 W 5 7 1012.0 - 0.0 - - - - - - -
27/10:30pm 10.0 W 7 11 1011.9 - 0.0 - - - - - - -
27/10:00pm 9.7 W 6 10 1011.9 - 0.0 - - - - - - -
27/09:30pm 9.4 WNW 5 9 1012.0 - 0.0 - - - - - - -
27/09:00pm 9.8 W 6 11 1012.1 - 0.0 - - - - - - -
27/08:30pm 9.7 WNW 6 10 1012.0 - 0.0 - - - - - - -
27/08:00pm 9.5 W 5 8 1011.9 - 0.0 - - - - - - -
27/07:30pm 10.2 W 5 9 1011.7 - 0.0 - - - - - - -
27/07:00pm 10.5 WSW 6 8 1011.5 - 0.0 - - - - - - -
27/06:30pm 11.0 W 8 13 1011.1 - 0.0 - - - - - - -
27/06:00pm 11.4 WSW 8 13 1010.8 - 0.0 - - - - - - -
27/05:30pm 12.2 WSW 9 14 1010.7 - 0.0 - - - - - - -
27/05:00pm 12.8 SW 12 20 1010.5 - 0.0 - - - - - - -
27/04:30pm 12.5 SW 9 15 1009.9 - 0.0 - - - - - - -
27/04:00pm 13.0 SW 10 19 1009.7 - 0.0 - - - - - - -
27/03:30pm 12.8 WSW 12 19 1009.3 - 0.0 - - - - - - -
27/03:00pm 13.2 WSW 12 19 1009.1 - 0.0 - - - - - - -
27/02:30pm 12.9 SW 13 20 1008.9 - 0.0 - - - - - - -
27/02:03pm 13.6 WSW 15 25 1008.7 - 0.0 - - - - - - -
27/02:00pm 13.8 WSW 13 24 1008.6 - 0.0 - - - - - - -
27/01:30pm 12.8 SW 11 19 1008.8 - 0.0 - - - - - - -
27/01:00pm 13.3 WSW 12 20 1008.5 - 0.0 - - - - - - -
27/12:30pm 13.3 SW 14 21 1008.5 - 0.0 - - - - - - -
27/12:00pm 12.5 SW 13 24 1008.6 - 0.0 - - - - - - -
27/11:30am 11.7 SW 12 21 1008.6 - 0.0 - - - - - - -
27/11:00am 10.4 SW 9 16 1008.6 - 0.0 - - - - - - -
27/10:30am 10.2 WSW 10 18 1008.7 - 0.0 - - - - - - -
27/10:00am 9.6 WSW 10 20 1008.8 - 0.0 - - - - - - -
27/09:30am 9.5 WSW 9 15 1008.7 - 0.0 - - - - - - -
27/09:00am 9.1 SW 9 19 1008.8 - 4.8 - - - - - - -
27/08:30am 8.2 WSW 8 13 1009.0 - 4.8 - - - - - - -
27/08:00am 7.5 W 11 21 1009.2 - 4.4 - - - - - - -
27/07:30am 8.1 W 8 13 1008.2 - 2.4 - - - - - - -
27/07:00am 8.2 W 8 12 1007.5 - 0.4 - - - - - - -
27/06:30am 8.3 WNW 6 8 1007.1 - 0.0 - - - - - - -
27/06:00am 8.3 WNW 6 8 1007.1 - 0.0 - - - - - - -
27/05:30am 8.1 NW 7 10 1007.0 - 0.0 - - - - - - -
27/05:00am 8.1 NW 6 9 1007.2 - 0.0 - - - - - - -
27/04:30am 7.5 NW 6 8 1007.4 - 0.0 - - - - - - -
27/04:00am 7.6 NW 4 6 1007.5 - 0.0 - - - - - - -
27/03:30am 7.6 NW 7 9 1008.0 - 0.0 - - - - - - -
27/03:00am 7.3 NW 8 10 1008.3 - 0.0 - - - - - - -
27/02:30am 7.0 NW 7 9 1008.5 - 0.0 - - - - - - -
27/02:00am 6.9 NW 7 9 1009.1 - 0.0 - - - - - - -
27/01:30am 7.1 NW 7 9 1009.6 - 0.0 - - - - - - -
27/01:00am 7.3 WNW 7 9 1010.0 - 0.0 - - - - - - -
27/12:30am 7.3 NW 7 9 1010.3 - 0.0 - - - - - - -
27/12:00am 7.3 WNW 6 8 1010.6 - 0.0 - - - - - - -
 
Date/Time
EST
Temp
°C
Wind Pressure Rain since
9am
mm
Weather Cloud Vis
km
Sea
Height
m
Swell
Dir  Spd
kts
Gust
kts
hPa Trend Height
m
Period
s
Dir
26/11:30pm 7.5 WNW 6 7 1010.8 - 0.0 - - - - - - -
26/11:00pm 8.1 NW 7 9 1011.0 - 0.0 - - - - - - -
26/10:30pm 8.3 NW 7 9 1011.3 - 0.0 - - - - - - -
26/10:00pm 8.8 NW 5 7 1011.6 - 0.0 - - - - - - -
26/09:30pm 9.3 WNW 4 5 1011.7 - 0.0 - - - - - - -
26/09:00pm 9.6 WNW 5 7 1011.9 - 0.0 - - - - - - -
26/08:30pm 9.5 WNW 6 9 1011.7 - 0.0 - - - - - - -
26/08:00pm 8.9 WNW 5 6 1011.6 - 0.0 - - - - - - -
26/07:30pm 8.9 WNW 5 6 1011.3 - 0.0 - - - - - - -
26/07:00pm 9.0 WNW 5 6 1011.2 - 0.0 - - - - - - -
26/06:30pm 9.0 WNW 4 5 1010.9 - 0.0 - - - - - - -
26/06:00pm 10.2 W 3 5 1010.8 - 0.0 - - - - - - -
26/05:30pm 12.1 SSW 5 7 1010.6 - 0.0 - - - - - - -
26/05:00pm 13.2 SSW 6 10 1010.3 - 0.0 - - - - - - -
26/04:30pm 13.3 SSW 7 11 1010.2 - 0.0 - - - - - - -
26/04:00pm 13.6 S 9 14 1010.0 - 0.0 - - - - - - -
26/03:30pm 14.1 SSW 10 16 1010.0 - 0.0 - - - - - - -
26/03:00pm 14.0 SSW 11 18 1010.0 - 0.0 - - - - - - -
26/02:30pm 13.7 S 13 19 1010.0 - 0.0 - - - - - - -
26/02:00pm 13.8 S 11 18 1010.3 - 0.0 - - - - - - -
26/01:30pm 13.0 SSW 11 17 1010.5 - 0.0 - - - - - - -
26/01:00pm 13.9 S 10 18 1010.6 - 0.0 - - - - - - -
26/12:30pm 13.9 S 10 17 1010.9 - 0.0 - - - - - - -
26/12:00pm 13.7 S 11 17 1011.2 - 0.0 - - - - - - -
26/11:30am 14.9 SW 6 11 1011.5 - 0.0 - - - - - - -
26/11:00am 14.9 SSW 8 17 1011.8 - 0.0 - - - - - - -
26/10:30am 15.0 SW 8 16 1012.0 - 0.0 - - - - - - -
26/10:00am 13.9 WSW 10 16 1012.3 - 0.0 - - - - - - -
26/09:30am 13.8 W 8 14 1012.5 - 0.0 - - - - - - -
26/09:00am 12.9 W 8 12 1012.7 - 1.2 - - - - - - -
26/08:30am 12.1 W 8 14 1012.4 - 1.2 - - - - - - -
26/08:00am 11.6 W 9 17 1012.5 - 1.2 - - - - - - -
26/07:30am 10.1 W 8 14 1012.5 - 1.2 - - - - - - -
26/07:00am 9.7 W 8 13 1012.6 - 1.2 - - - - - - -
26/06:30am 9.1 W 9 16 1012.5 - 1.2 - - - - - - -
26/06:00am 8.5 W 8 14 1012.4 - 1.2 - - - - - - -
26/05:30am 8.3 W 8 14 1012.0 - 1.2 - - - - - - -
26/05:00am 8.5 W 9 15 1012.0 - 1.2 - - - - - - -
26/04:30am 8.6 W 9 15 1011.7 - 1.2 - - - - - - -
26/04:00am 8.6 W 9 18 1011.7 - 1.2 - - - - - - -
26/03:30am 8.2 W 8 12 1011.7 - 1.2 - - - - - - -

Other Formats:

Comma delimited format used in spreadsheet applications
http://www.bom.gov.au/fwo/IDV60701/IDV60701.94935.axf

JavaScript Object Notation format (JSON) in row-major order
http://www.bom.gov.au/fwo/IDV60701/IDV60701.94935.json